sensor_id;sensor_type;location;lat;lon;timestamp;temperature;humidity
29577;DHT22;16509;53.862;10.672;2022-08-11T00:01:55;18.20;99.90
29577;DHT22;16509;53.862;10.672;2022-08-11T00:04:24;18.10;99.90
29577;DHT22;16509;53.862;10.672;2022-08-11T00:06:50;18.10;99.90
29577;DHT22;16509;53.862;10.672;2022-08-11T00:09:19;18.10;99.90
29577;DHT22;16509;53.862;10.672;2022-08-11T00:11:54;18.00;99.90
29577;DHT22;16509;53.862;10.672;2022-08-11T00:14:24;18.00;99.90
29577;DHT22;16509;53.862;10.672;2022-08-11T00:17:10;18.00;99.90
29577;DHT22;16509;53.862;10.672;2022-08-11T00:19:40;17.90;99.90
29577;DHT22;16509;53.862;10.672;2022-08-11T00:22:08;17.90;99.90
29577;DHT22;16509;53.862;10.672;2022-08-11T00:24:36;17.90;99.90
29577;DHT22;16509;53.862;10.672;2022-08-11T00:27:13;17.90;99.90
29577;DHT22;16509;53.862;10.672;2022-08-11T00:29:52;17.80;99.90
29577;DHT22;16509;53.862;10.672;2022-08-11T00:32:18;17.80;99.90
29577;DHT22;16509;53.862;10.672;2022-08-11T00:34:46;17.80;99.90
29577;DHT22;16509;53.862;10.672;2022-08-11T00:37:18;17.60;99.90
29577;DHT22;16509;53.862;10.672;2022-08-11T00:39:53;17.80;99.90
29577;DHT22;16509;53.862;10.672;2022-08-11T00:42:45;17.70;99.90
29577;DHT22;16509;53.862;10.672;2022-08-11T00:45:34;17.70;99.90
29577;DHT22;16509;53.862;10.672;2022-08-11T00:51:24;17.60;99.90
29577;DHT22;16509;53.862;10.672;2022-08-11T01:00:13;17.50;99.90
29577;DHT22;16509;53.862;10.672;2022-08-11T01:08:41;17.30;99.90
29577;DHT22;16509;53.862;10.672;2022-08-11T01:25:29;17.20;99.90
29577;DHT22;16509;53.862;10.672;2022-08-11T01:48:12;17.00;99.90
29577;DHT22;16509;53.862;10.672;2022-08-11T01:53:53;16.90;99.90
29577;DHT22;16509;53.862;10.672;2022-08-11T01:56:34;16.80;99.90
29577;DHT22;16509;53.862;10.672;2022-08-11T02:11:47;16.80;99.90
29577;DHT22;16509;53.862;10.672;2022-08-11T02:14:28;16.70;99.90
29577;DHT22;16509;53.862;10.672;2022-08-11T02:17:18;16.80;99.90
29577;DHT22;16509;53.862;10.672;2022-08-11T02:19:53;16.70;99.90
29577;DHT22;16509;53.862;10.672;2022-08-11T02:23:01;16.70;99.90
29577;DHT22;16509;53.862;10.672;2022-08-11T02:25:55;16.70;99.90
29577;DHT22;16509;53.862;10.672;2022-08-11T02:34:44;16.60;99.90
29577;DHT22;16509;53.862;10.672;2022-08-11T02:37:18;16.60;99.90
29577;DHT22;16509;53.862;10.672;2022-08-11T02:40:26;16.60;99.90
29577;DHT22;16509;53.862;10.672;2022-08-11T02:43:08;16.70;99.90
29577;DHT22;16509;53.862;10.672;2022-08-11T02:45:55;16.60;99.90
29577;DHT22;16509;53.862;10.672;2022-08-11T02:49:04;16.60;99.90
29577;DHT22;16509;53.862;10.672;2022-08-11T02:52:04;16.60;99.90
29577;DHT22;16509;53.862;10.672;2022-08-11T02:54:37;16.60;99.90
29577;DHT22;16509;53.862;10.672;2022-08-11T02:57:21;16.60;99.90
29577;DHT22;16509;53.862;10.672;2022-08-11T03:00:10;16.60;99.90
29577;DHT22;16509;53.862;10.672;2022-08-11T03:03:06;16.50;99.90
29577;DHT22;16509;53.862;10.672;2022-08-11T03:22:59;16.30;99.90
29577;DHT22;16509;53.862;10.672;2022-08-11T03:28:38;16.40;99.90
29577;DHT22;16509;53.862;10.672;2022-08-11T03:31:24;16.30;99.90
29577;DHT22;16509;53.862;10.672;2022-08-11T03:34:06;16.30;99.90
29577;DHT22;16509;53.862;10.672;2022-08-11T03:39:47;16.30;99.90
29577;DHT22;16509;53.862;10.672;2022-08-11T03:42:23;16.30;99.90
29577;DHT22;16509;53.862;10.672;2022-08-11T03:45:02;16.20;99.90
29577;DHT22;16509;53.862;10.672;2022-08-11T03:48:02;16.20;99.90
29577;DHT22;16509;53.862;10.672;2022-08-11T03:53:31;16.20;99.90
29577;DHT22;16509;53.862;10.672;2022-08-11T03:56:12;16.20;99.90
29577;DHT22;16509;53.862;10.672;2022-08-11T04:02:07;16.10;99.90
29577;DHT22;16509;53.862;10.672;2022-08-11T04:16:05;16.10;99.90
29577;DHT22;16509;53.862;10.672;2022-08-11T04:22:02;16.10;99.90
29577;DHT22;16509;53.862;10.672;2022-08-11T04:33:05;16.00;99.90
29577;DHT22;16509;53.862;10.672;2022-08-11T04:36:33;16.00;99.90
29577;DHT22;16509;53.862;10.672;2022-08-11T04:45:00;16.00;99.90
29577;DHT22;16509;53.862;10.672;2022-08-11T04:54:30;16.10;99.90
29577;DHT22;16509;53.862;10.672;2022-08-11T04:57:50;16.20;99.90
29577;DHT22;16509;53.862;10.672;2022-08-11T05:12:58;16.40;99.90
29577;DHT22;16509;53.862;10.672;2022-08-11T05:15:57;16.40;99.90
29577;DHT22;16509;53.862;10.672;2022-08-11T05:18:51;16.40;99.90
29577;DHT22;16509;53.862;10.672;2022-08-11T05:21:39;16.50;99.90
29577;DHT22;16509;53.862;10.672;2022-08-11T05:24:36;16.60;99.90
29577;DHT22;16509;53.862;10.672;2022-08-11T05:27:32;16.60;99.90
29577;DHT22;16509;53.862;10.672;2022-08-11T05:30:19;16.70;99.90
29577;DHT22;16509;53.862;10.672;2022-08-11T05:33:08;16.80;99.90
29577;DHT22;16509;53.862;10.672;2022-08-11T05:36:01;16.90;99.90
29577;DHT22;16509;53.862;10.672;2022-08-11T05:38:34;17.00;99.90
29577;DHT22;16509;53.862;10.672;2022-08-11T05:41:23;17.10;99.90
29577;DHT22;16509;53.862;10.672;2022-08-11T05:44:09;17.20;99.90
29577;DHT22;16509;53.862;10.672;2022-08-11T05:46:54;17.20;99.90
29577;DHT22;16509;53.862;10.672;2022-08-11T05:49:39;17.30;99.90
29577;DHT22;16509;53.862;10.672;2022-08-11T05:52:26;17.40;99.90
29577;DHT22;16509;53.862;10.672;2022-08-11T05:55:12;17.50;99.90
29577;DHT22;16509;53.862;10.672;2022-08-11T05:58:06;17.60;99.90
29577;DHT22;16509;53.862;10.672;2022-08-11T06:00:41;17.70;99.90
29577;DHT22;16509;53.862;10.672;2022-08-11T06:03:08;17.90;99.90
29577;DHT22;16509;53.862;10.672;2022-08-11T06:05:39;17.70;99.90
29577;DHT22;16509;53.862;10.672;2022-08-11T06:08:09;17.90;99.90
29577;DHT22;16509;53.862;10.672;2022-08-11T06:10:37;18.00;99.90
29577;DHT22;16509;53.862;10.672;2022-08-11T06:13:05;18.50;99.90
29577;DHT22;16509;53.862;10.672;2022-08-11T06:15:33;18.10;99.90
29577;DHT22;16509;53.862;10.672;2022-08-11T06:18:09;18.20;99.90
29577;DHT22;16509;53.862;10.672;2022-08-11T06:20:51;18.20;99.90
29577;DHT22;16509;53.862;10.672;2022-08-11T06:23:20;18.30;99.90
29577;DHT22;16509;53.862;10.672;2022-08-11T06:25:52;18.50;99.90
29577;DHT22;16509;53.862;10.672;2022-08-11T06:28:18;18.60;99.90
29577;DHT22;16509;53.862;10.672;2022-08-11T06:30:55;18.70;99.90
29577;DHT22;16509;53.862;10.672;2022-08-11T06:33:36;18.80;99.90
29577;DHT22;16509;53.862;10.672;2022-08-11T06:36:34;18.90;99.90
29577;DHT22;16509;53.862;10.672;2022-08-11T06:44:31;19.60;99.90
29577;DHT22;16509;53.862;10.672;2022-08-11T06:47:06;19.60;99.90
29577;DHT22;16509;53.862;10.672;2022-08-11T06:49:44;19.80;99.90
29577;DHT22;16509;53.862;10.672;2022-08-11T06:52:36;19.90;99.90
29577;DHT22;16509;53.862;10.672;2022-08-11T06:55:11;20.10;99.90
29577;DHT22;16509;53.862;10.672;2022-08-11T06:57:39;20.20;99.90
29577;DHT22;16509;53.862;10.672;2022-08-11T07:00:24;20.30;99.90
29577;DHT22;16509;53.862;10.672;2022-08-11T07:02:58;20.50;99.90
29577;DHT22;16509;53.862;10.672;2022-08-11T07:05:43;20.60;99.90
29577;DHT22;16509;53.862;10.672;2022-08-11T07:14:40;21.00;99.90
29577;DHT22;16509;53.862;10.672;2022-08-11T07:17:25;21.30;99.90
29577;DHT22;16509;53.862;10.672;2022-08-11T07:19:54;21.40;99.90
29577;DHT22;16509;53.862;10.672;2022-08-11T07:22:40;21.60;99.90
29577;DHT22;16509;53.862;10.672;2022-08-11T07:25:28;21.80;99.90
29577;DHT22;16509;53.862;10.672;2022-08-11T07:28:22;21.80;99.90
29577;DHT22;16509;53.862;10.672;2022-08-11T07:31:09;22.00;99.90
29577;DHT22;16509;53.862;10.672;2022-08-11T07:33:58;22.90;99.90
29577;DHT22;16509;53.862;10.672;2022-08-11T07:36:29;22.20;99.90
29577;DHT22;16509;53.862;10.672;2022-08-11T07:38:55;22.40;99.90
29577;DHT22;16509;53.862;10.672;2022-08-11T07:41:22;22.50;99.90
29577;DHT22;16509;53.862;10.672;2022-08-11T07:43:54;22.50;99.90
29577;DHT22;16509;53.862;10.672;2022-08-11T07:46:38;22.70;99.90
29577;DHT22;16509;53.862;10.672;2022-08-11T07:49:24;22.90;99.90
29577;DHT22;16509;53.862;10.672;2022-08-11T07:52:09;23.10;99.90
29577;DHT22;16509;53.862;10.672;2022-08-11T07:54:56;23.10;99.90
29577;DHT22;16509;53.862;10.672;2022-08-11T07:57:23;23.30;99.90
29577;DHT22;16509;53.862;10.672;2022-08-11T08:00:08;23.40;99.90
29577;DHT22;16509;53.862;10.672;2022-08-11T08:02:53;23.60;99.90
29577;DHT22;16509;53.862;10.672;2022-08-11T08:05:37;23.70;99.90
29577;DHT22;16509;53.862;10.672;2022-08-11T08:08:22;23.90;99.90
29577;DHT22;16509;53.862;10.672;2022-08-11T08:11:07;24.10;99.90
29577;DHT22;16509;53.862;10.672;2022-08-11T08:13:53;24.10;99.90
29577;DHT22;16509;53.862;10.672;2022-08-11T08:16:37;24.10;99.90
29577;DHT22;16509;53.862;10.672;2022-08-11T08:19:22;24.30;99.90
29577;DHT22;16509;53.862;10.672;2022-08-11T08:21:48;24.40;99.90
29577;DHT22;16509;53.862;10.672;2022-08-11T08:24:14;24.50;99.90
29577;DHT22;16509;53.862;10.672;2022-08-11T08:26:44;24.60;99.90
29577;DHT22;16509;53.862;10.672;2022-08-11T08:29:31;24.70;99.90
29577;DHT22;16509;53.862;10.672;2022-08-11T08:32:17;24.80;99.90
29577;DHT22;16509;53.862;10.672;2022-08-11T08:34:45;24.90;99.90
29577;DHT22;16509;53.862;10.672;2022-08-11T08:37:11;24.90;99.90
29577;DHT22;16509;53.862;10.672;2022-08-11T08:39:37;25.00;99.90
29577;DHT22;16509;53.862;10.672;2022-08-11T08:42:08;25.00;99.90
29577;DHT22;16509;53.862;10.672;2022-08-11T08:44:40;25.00;99.90
29577;DHT22;16509;53.862;10.672;2022-08-11T08:47:06;25.10;99.90
29577;DHT22;16509;53.862;10.672;2022-08-11T08:49:37;25.40;99.90
29577;DHT22;16509;53.862;10.672;2022-08-11T08:52:05;25.30;99.90
29577;DHT22;16509;53.862;10.672;2022-08-11T08:54:37;25.50;99.90
29577;DHT22;16509;53.862;10.672;2022-08-11T08:57:05;25.60;99.90
29577;DHT22;16509;53.862;10.672;2022-08-11T08:59:35;25.60;99.90
29577;DHT22;16509;53.862;10.672;2022-08-11T09:02:05;25.70;99.90
29577;DHT22;16509;53.862;10.672;2022-08-11T09:04:32;25.80;99.90
29577;DHT22;16509;53.862;10.672;2022-08-11T09:07:02;25.90;99.90
29577;DHT22;16509;53.862;10.672;2022-08-11T09:09:31;26.00;99.90
29577;DHT22;16509;53.862;10.672;2022-08-11T09:11:57;25.90;99.90
29577;DHT22;16509;53.862;10.672;2022-08-11T09:14:38;26.00;99.90
29577;DHT22;16509;53.862;10.672;2022-08-11T09:17:29;26.30;99.90
29577;DHT22;16509;53.862;10.672;2022-08-11T09:20:08;26.40;99.90
29577;DHT22;16509;53.862;10.672;2022-08-11T09:22:38;26.50;99.90
29577;DHT22;16509;53.862;10.672;2022-08-11T09:25:27;26.60;99.90
29577;DHT22;16509;53.862;10.672;2022-08-11T09:28:13;26.60;99.90
29577;DHT22;16509;53.862;10.672;2022-08-11T09:30:44;26.60;99.90
29577;DHT22;16509;53.862;10.672;2022-08-11T09:33:13;26.80;99.90
29577;DHT22;16509;53.862;10.672;2022-08-11T09:35:40;26.80;99.90
29577;DHT22;16509;53.862;10.672;2022-08-11T09:38:13;26.70;99.90
29577;DHT22;16509;53.862;10.672;2022-08-11T09:41:00;26.60;99.90
29577;DHT22;16509;53.862;10.672;2022-08-11T09:43:27;26.70;99.90
29577;DHT22;16509;53.862;10.672;2022-08-11T09:46:12;26.80;99.90
29577;DHT22;16509;53.862;10.672;2022-08-11T09:48:41;27.10;99.90
29577;DHT22;16509;53.862;10.672;2022-08-11T09:51:08;27.40;99.90
29577;DHT22;16509;53.862;10.672;2022-08-11T09:53:37;27.50;99.90
29577;DHT22;16509;53.862;10.672;2022-08-11T09:56:05;27.60;99.90
29577;DHT22;16509;53.862;10.672;2022-08-11T09:58:51;27.60;99.90
29577;DHT22;16509;53.862;10.672;2022-08-11T10:01:21;27.80;99.90
29577;DHT22;16509;53.862;10.672;2022-08-11T10:04:03;27.70;99.90
29577;DHT22;16509;53.862;10.672;2022-08-11T10:06:29;28.00;99.90
29577;DHT22;16509;53.862;10.672;2022-08-11T10:09:18;28.00;99.90
29577;DHT22;16509;53.862;10.672;2022-08-11T10:11:45;27.90;99.90
29577;DHT22;16509;53.862;10.672;2022-08-11T10:14:12;28.10;99.90
29577;DHT22;16509;53.862;10.672;2022-08-11T10:16:57;28.20;99.90
29577;DHT22;16509;53.862;10.672;2022-08-11T10:19:23;28.30;98.80
29577;DHT22;16509;53.862;10.672;2022-08-11T10:21:50;28.30;99.80
29577;DHT22;16509;53.862;10.672;2022-08-11T10:24:37;28.40;99.90
29577;DHT22;16509;53.862;10.672;2022-08-11T10:27:22;28.50;98.50
29577;DHT22;16509;53.862;10.672;2022-08-11T10:29:49;28.60;99.20
29577;DHT22;16509;53.862;10.672;2022-08-11T10:32:34;28.70;99.40
29577;DHT22;16509;53.862;10.672;2022-08-11T10:35:20;28.50;99.80
29577;DHT22;16509;53.862;10.672;2022-08-11T10:37:52;28.40;99.10
29577;DHT22;16509;53.862;10.672;2022-08-11T10:40:20;28.50;99.90
29577;DHT22;16509;53.862;10.672;2022-08-11T10:42:53;28.80;98.90
29577;DHT22;16509;53.862;10.672;2022-08-11T10:45:39;28.90;98.80
29577;DHT22;16509;53.862;10.672;2022-08-11T10:48:26;28.80;99.70
29577;DHT22;16509;53.862;10.672;2022-08-11T10:50:53;29.00;99.90
29577;DHT22;16509;53.862;10.672;2022-08-11T10:53:49;29.00;97.80
29577;DHT22;16509;53.862;10.672;2022-08-11T10:56:36;29.00;99.50
29577;DHT22;16509;53.862;10.672;2022-08-11T10:59:23;28.80;98.60
29577;DHT22;16509;53.862;10.672;2022-08-11T11:01:51;29.20;98.90
29577;DHT22;16509;53.862;10.672;2022-08-11T11:04:22;29.40;96.80
29577;DHT22;16509;53.862;10.672;2022-08-11T11:07:07;29.40;97.10
29577;DHT22;16509;53.862;10.672;2022-08-11T11:15:20;29.70;97.40
29577;DHT22;16509;53.862;10.672;2022-08-11T11:18:08;29.60;96.30
29577;DHT22;16509;53.862;10.672;2022-08-11T11:20:59;29.60;97.10
29577;DHT22;16509;53.862;10.672;2022-08-11T11:32:26;29.90;95.40
29577;DHT22;16509;53.862;10.672;2022-08-11T11:37:40;30.10;94.90
29577;DHT22;16509;53.862;10.672;2022-08-11T11:40:13;30.10;94.10
29577;DHT22;16509;53.862;10.672;2022-08-11T11:42:43;30.20;94.70
29577;DHT22;16509;53.862;10.672;2022-08-11T11:45:11;30.20;94.30
29577;DHT22;16509;53.862;10.672;2022-08-11T11:47:40;30.10;94.70
29577;DHT22;16509;53.862;10.672;2022-08-11T11:50:07;30.30;94.30
29577;DHT22;16509;53.862;10.672;2022-08-11T11:52:33;30.50;93.30
29577;DHT22;16509;53.862;10.672;2022-08-11T11:55:01;30.50;92.80
29577;DHT22;16509;53.862;10.672;2022-08-11T11:57:27;30.50;94.30
29577;DHT22;16509;53.862;10.672;2022-08-11T12:00:12;30.60;93.70
29577;DHT22;16509;53.862;10.672;2022-08-11T12:02:58;31.00;92.40
29577;DHT22;16509;53.862;10.672;2022-08-11T12:05:25;30.80;91.90
29577;DHT22;16509;53.862;10.672;2022-08-11T12:07:52;31.10;92.70
29577;DHT22;16509;53.862;10.672;2022-08-11T12:10:55;31.00;91.30
29577;DHT22;16509;53.862;10.672;2022-08-11T12:13:44;30.90;92.10
29577;DHT22;16509;53.862;10.672;2022-08-11T12:16:11;31.00;91.80
29577;DHT22;16509;53.862;10.672;2022-08-11T12:18:39;31.10;91.30
29577;DHT22;16509;53.862;10.672;2022-08-11T12:21:06;31.40;91.50
29577;DHT22;16509;53.862;10.672;2022-08-11T12:23:34;31.40;90.30
29577;DHT22;16509;53.862;10.672;2022-08-11T12:26:19;31.20;91.70
29577;DHT22;16509;53.862;10.672;2022-08-11T12:29:04;31.30;91.40
29577;DHT22;16509;53.862;10.672;2022-08-11T12:31:32;31.50;90.10
29577;DHT22;16509;53.862;10.672;2022-08-11T12:34:03;31.40;91.00
29577;DHT22;16509;53.862;10.672;2022-08-11T12:36:34;31.50;91.20
29577;DHT22;16509;53.862;10.672;2022-08-11T12:39:02;31.70;90.00
29577;DHT22;16509;53.862;10.672;2022-08-11T12:41:29;31.70;89.80
29577;DHT22;16509;53.862;10.672;2022-08-11T12:44:13;31.50;90.60
29577;DHT22;16509;53.862;10.672;2022-08-11T12:47:06;31.90;89.30
29577;DHT22;16509;53.862;10.672;2022-08-11T12:49:37;31.70;86.60
29577;DHT22;16509;53.862;10.672;2022-08-11T12:52:26;31.50;87.90
29577;DHT22;16509;53.862;10.672;2022-08-11T12:55:01;31.20;86.80
29577;DHT22;16509;53.862;10.672;2022-08-11T12:57:34;31.30;89.40
29577;DHT22;16509;53.862;10.672;2022-08-11T13:00:20;31.40;87.80
29577;DHT22;16509;53.862;10.672;2022-08-11T13:03:07;31.90;88.70
29577;DHT22;16509;53.862;10.672;2022-08-11T13:05:57;32.30;87.10
29577;DHT22;16509;53.862;10.672;2022-08-11T13:08:25;32.40;85.90
29577;DHT22;16509;53.862;10.672;2022-08-11T13:10:52;32.30;86.30
29577;DHT22;16509;53.862;10.672;2022-08-11T13:13:39;32.30;86.50
29577;DHT22;16509;53.862;10.672;2022-08-11T13:16:07;32.40;86.00
29577;DHT22;16509;53.862;10.672;2022-08-11T13:18:33;32.20;86.80
29577;DHT22;16509;53.862;10.672;2022-08-11T13:20:59;32.00;82.40
29577;DHT22;16509;53.862;10.672;2022-08-11T13:23:26;31.90;84.10
29577;DHT22;16509;53.862;10.672;2022-08-11T13:25:54;32.00;82.70
29577;DHT22;16509;53.862;10.672;2022-08-11T13:28:21;31.90;85.30
29577;DHT22;16509;53.862;10.672;2022-08-11T13:30:51;31.80;81.60
29577;DHT22;16509;53.862;10.672;2022-08-11T13:33:44;31.60;82.50
29577;DHT22;16509;53.862;10.672;2022-08-11T13:36:11;31.70;82.80
29577;DHT22;16509;53.862;10.672;2022-08-11T13:38:37;31.70;83.60
29577;DHT22;16509;53.862;10.672;2022-08-11T13:41:06;31.70;83.10
29577;DHT22;16509;53.862;10.672;2022-08-11T13:43:51;31.30;82.10
29577;DHT22;16509;53.862;10.672;2022-08-11T13:46:19;30.60;84.30
29577;DHT22;16509;53.862;10.672;2022-08-11T13:48:49;30.10;83.30
29577;DHT22;16509;53.862;10.672;2022-08-11T13:51:16;29.70;86.00
29577;DHT22;16509;53.862;10.672;2022-08-11T13:54:02;29.20;86.20
29577;DHT22;16509;53.862;10.672;2022-08-11T13:56:29;28.70;88.20
29577;DHT22;16509;53.862;10.672;2022-08-11T13:58:57;28.20;89.40
29577;DHT22;16509;53.862;10.672;2022-08-11T14:01:27;27.90;90.00
29577;DHT22;16509;53.862;10.672;2022-08-11T14:03:54;27.70;90.50
29577;DHT22;16509;53.862;10.672;2022-08-11T14:06:22;27.50;91.10
29577;DHT22;16509;53.862;10.672;2022-08-11T14:08:48;27.40;91.70
29577;DHT22;16509;53.862;10.672;2022-08-11T14:11:16;27.40;91.60
29577;DHT22;16509;53.862;10.672;2022-08-11T14:14:01;27.20;91.60
29577;DHT22;16509;53.862;10.672;2022-08-11T14:16:29;27.00;91.30
29577;DHT22;16509;53.862;10.672;2022-08-11T14:19:06;27.00;91.30
29577;DHT22;16509;53.862;10.672;2022-08-11T14:21:38;26.80;91.70
29577;DHT22;16509;53.862;10.672;2022-08-11T14:24:25;26.70;91.70
29577;DHT22;16509;53.862;10.672;2022-08-11T14:26:52;26.60;91.70
29577;DHT22;16509;53.862;10.672;2022-08-11T14:29:20;26.50;92.50
29577;DHT22;16509;53.862;10.672;2022-08-11T14:34:18;26.30;92.60
29577;DHT22;16509;53.862;10.672;2022-08-11T14:36:52;26.20;92.50
29577;DHT22;16509;53.862;10.672;2022-08-11T14:39:24;26.20;93.20
29577;DHT22;16509;53.862;10.672;2022-08-11T14:42:02;26.20;93.10
29577;DHT22;16509;53.862;10.672;2022-08-11T14:44:58;26.10;92.90
29577;DHT22;16509;53.862;10.672;2022-08-11T14:47:47;26.00;92.90
29577;DHT22;16509;53.862;10.672;2022-08-11T14:50:17;25.90;93.80
29577;DHT22;16509;53.862;10.672;2022-08-11T14:52:54;25.90;93.50
29577;DHT22;16509;53.862;10.672;2022-08-11T14:55:23;25.80;93.40
29577;DHT22;16509;53.862;10.672;2022-08-11T14:58:23;25.80;93.70
29577;DHT22;16509;53.862;10.672;2022-08-11T15:00:57;25.80;93.60
29577;DHT22;16509;53.862;10.672;2022-08-11T15:03:25;25.70;93.30
29577;DHT22;16509;53.862;10.672;2022-08-11T15:05:57;25.60;94.30
29577;DHT22;16509;53.862;10.672;2022-08-11T15:08:37;25.60;94.60
29577;DHT22;16509;53.862;10.672;2022-08-11T15:11:22;25.50;94.30
29577;DHT22;16509;53.862;10.672;2022-08-11T15:14:07;25.40;94.70
29577;DHT22;16509;53.862;10.672;2022-08-11T15:16:35;25.30;94.60
29577;DHT22;16509;53.862;10.672;2022-08-11T15:19:20;25.30;94.60
29577;DHT22;16509;53.862;10.672;2022-08-11T15:21:47;25.30;95.30
29577;DHT22;16509;53.862;10.672;2022-08-11T15:24:32;25.20;95.30
29577;DHT22;16509;53.862;10.672;2022-08-11T15:27:01;25.00;95.00
29577;DHT22;16509;53.862;10.672;2022-08-11T15:29:48;25.00;95.30
29577;DHT22;16509;53.862;10.672;2022-08-11T15:32:36;25.00;95.40
29577;DHT22;16509;53.862;10.672;2022-08-11T15:35:22;24.90;95.00
29577;DHT22;16509;53.862;10.672;2022-08-11T15:38:08;24.90;95.10
29577;DHT22;16509;53.862;10.672;2022-08-11T15:40:38;24.90;95.60
29577;DHT22;16509;53.862;10.672;2022-08-11T15:43:38;24.80;95.70
29577;DHT22;16509;53.862;10.672;2022-08-11T15:46:34;24.80;96.60
29577;DHT22;16509;53.862;10.672;2022-08-11T15:49:11;24.80;97.00
29577;DHT22;16509;53.862;10.672;2022-08-11T15:51:45;24.70;96.30
29577;DHT22;16509;53.862;10.672;2022-08-11T15:54:18;24.70;97.00
29577;DHT22;16509;53.862;10.672;2022-08-11T15:56:48;25.10;96.20
29577;DHT22;16509;53.862;10.672;2022-08-11T15:59:16;24.70;96.60
29577;DHT22;16509;53.862;10.672;2022-08-11T16:02:03;24.60;96.70
29577;DHT22;16509;53.862;10.672;2022-08-11T16:04:48;24.60;96.50
29577;DHT22;16509;53.862;10.672;2022-08-11T16:07:18;24.50;96.10
29577;DHT22;16509;53.862;10.672;2022-08-11T16:09:52;24.50;96.10
29577;DHT22;16509;53.862;10.672;2022-08-11T16:12:21;24.30;96.20
29577;DHT22;16509;53.862;10.672;2022-08-11T16:14:50;24.40;96.20
29577;DHT22;16509;53.862;10.672;2022-08-11T16:17:47;24.40;95.70
29577;DHT22;16509;53.862;10.672;2022-08-11T16:20:18;24.30;96.70
29577;DHT22;16509;53.862;10.672;2022-08-11T16:22:46;24.30;96.50
29577;DHT22;16509;53.862;10.672;2022-08-11T16:25:24;24.30;96.20
29577;DHT22;16509;53.862;10.672;2022-08-11T16:27:54;24.20;95.80
29577;DHT22;16509;53.862;10.672;2022-08-11T16:30:21;24.20;95.50
29577;DHT22;16509;53.862;10.672;2022-08-11T16:32:48;24.20;96.00
29577;DHT22;16509;53.862;10.672;2022-08-11T16:35:21;24.10;95.30
29577;DHT22;16509;53.862;10.672;2022-08-11T16:38:07;24.00;95.60
29577;DHT22;16509;53.862;10.672;2022-08-11T16:40:53;24.00;96.10
29577;DHT22;16509;53.862;10.672;2022-08-11T16:43:23;24.00;96.10
29577;DHT22;16509;53.862;10.672;2022-08-11T16:46:08;24.00;95.80
29577;DHT22;16509;53.862;10.672;2022-08-11T16:48:55;24.00;95.50
29577;DHT22;16509;53.862;10.672;2022-08-11T16:51:22;23.90;95.50
29577;DHT22;16509;53.862;10.672;2022-08-11T16:53:48;23.90;95.90
29577;DHT22;16509;53.862;10.672;2022-08-11T16:56:24;23.90;96.00
29577;DHT22;16509;53.862;10.672;2022-08-11T16:58:54;23.80;96.30
29577;DHT22;16509;53.862;10.672;2022-08-11T17:01:53;23.80;96.70
29577;DHT22;16509;53.862;10.672;2022-08-11T17:04:34;23.70;97.60
29577;DHT22;16509;53.862;10.672;2022-08-11T17:07:19;23.70;97.50
29577;DHT22;16509;53.862;10.672;2022-08-11T17:10:05;23.70;96.40
29577;DHT22;16509;53.862;10.672;2022-08-11T17:12:55;23.70;95.60
29577;DHT22;16509;53.862;10.672;2022-08-11T17:15:47;23.70;95.80
29577;DHT22;16509;53.862;10.672;2022-08-11T17:23:58;23.50;94.30
29577;DHT22;16509;53.862;10.672;2022-08-11T17:26:44;23.40;95.10
29577;DHT22;16509;53.862;10.672;2022-08-11T17:32:16;23.40;95.40
29577;DHT22;16509;53.862;10.672;2022-08-11T17:35:03;23.30;95.80
29577;DHT22;16509;53.862;10.672;2022-08-11T17:37:50;23.30;96.00
29577;DHT22;16509;53.862;10.672;2022-08-11T17:40:21;23.20;95.70
29577;DHT22;16509;53.862;10.672;2022-08-11T17:42:50;23.10;96.00
29577;DHT22;16509;53.862;10.672;2022-08-11T17:45:34;23.10;96.30
29577;DHT22;16509;53.862;10.672;2022-08-11T17:48:36;23.10;96.40
29577;DHT22;16509;53.862;10.672;2022-08-11T17:51:10;23.10;96.80
29577;DHT22;16509;53.862;10.672;2022-08-11T17:53:41;23.10;97.00
29577;DHT22;16509;53.862;10.672;2022-08-11T17:56:28;23.10;97.10
29577;DHT22;16509;53.862;10.672;2022-08-11T17:59:14;23.00;97.70
29577;DHT22;16509;53.862;10.672;2022-08-11T18:02:01;23.00;98.10
29577;DHT22;16509;53.862;10.672;2022-08-11T18:04:49;22.80;97.80
29577;DHT22;16509;53.862;10.672;2022-08-11T18:07:17;23.00;98.30
29577;DHT22;16509;53.862;10.672;2022-08-11T18:10:05;22.90;98.90
29577;DHT22;16509;53.862;10.672;2022-08-11T18:12:51;22.90;99.10
29577;DHT22;16509;53.862;10.672;2022-08-11T18:15:40;22.80;99.50
29577;DHT22;16509;53.862;10.672;2022-08-11T18:18:25;22.80;99.70
29577;DHT22;16509;53.862;10.672;2022-08-11T18:21:13;22.70;99.90
29577;DHT22;16509;53.862;10.672;2022-08-11T18:24:02;22.70;99.90
29577;DHT22;16509;53.862;10.672;2022-08-11T18:26:48;22.70;99.90
29577;DHT22;16509;53.862;10.672;2022-08-11T18:29:35;22.70;99.90
29577;DHT22;16509;53.862;10.672;2022-08-11T18:32:23;22.70;99.90
29577;DHT22;16509;53.862;10.672;2022-08-11T18:35:09;22.70;99.90
29577;DHT22;16509;53.862;10.672;2022-08-11T18:37:55;22.60;99.90
29577;DHT22;16509;53.862;10.672;2022-08-11T18:40:43;22.60;99.90
29577;DHT22;16509;53.862;10.672;2022-08-11T18:43:31;22.60;99.90
29577;DHT22;16509;53.862;10.672;2022-08-11T18:46:20;22.50;99.90
29577;DHT22;16509;53.862;10.672;2022-08-11T18:49:11;22.40;99.90
29577;DHT22;16509;53.862;10.672;2022-08-11T18:51:56;22.30;99.90
29577;DHT22;16509;53.862;10.672;2022-08-11T18:54:44;22.20;99.90
29577;DHT22;16509;53.862;10.672;2022-08-11T18:57:29;22.10;99.90
29577;DHT22;16509;53.862;10.672;2022-08-11T19:00:14;22.10;99.90
29577;DHT22;16509;53.862;10.672;2022-08-11T19:02:59;22.00;99.90
29577;DHT22;16509;53.862;10.672;2022-08-11T19:05:45;21.90;99.90
29577;DHT22;16509;53.862;10.672;2022-08-11T19:08:34;21.90;99.90
29577;DHT22;16509;53.862;10.672;2022-08-11T19:11:20;21.80;99.90
29577;DHT22;16509;53.862;10.672;2022-08-11T19:14:06;21.80;99.90
29577;DHT22;16509;53.862;10.672;2022-08-11T19:16:51;21.70;99.90
29577;DHT22;16509;53.862;10.672;2022-08-11T19:19:38;21.60;99.90
29577;DHT22;16509;53.862;10.672;2022-08-11T19:22:23;20.60;99.90
29577;DHT22;16509;53.862;10.672;2022-08-11T19:25:10;21.60;99.90
29577;DHT22;16509;53.862;10.672;2022-08-11T19:27:56;21.50;99.90
29577;DHT22;16509;53.862;10.672;2022-08-11T19:30:41;21.50;99.90
29577;DHT22;16509;53.862;10.672;2022-08-11T19:33:26;21.50;99.90
29577;DHT22;16509;53.862;10.672;2022-08-11T19:36:11;21.40;99.90